Time;durP1;ratioP1;P1;durP2;ratioP2;P2;SDS_P1;SDS_P2;PMS_P1;PMS_P2;Temp;Humidity;BMP_temperature;BMP_pressure;BME280_temperature;BME280_humidity;BME280_pressure;Samples;Min_cycle;Max_cycle;Signal;HPM_P1;HPM_P2
2022/05/23 00:04:39;;;;;;;5.70;4.18;;;;;17.00;100180.00;;;;10036291;29;20213;-78
2022/05/23 00:09:41;;;;;;;8.20;4.28;;;;;17.00;100194.00;;;;10036062;29;20224;-78
2022/05/23 00:14:44;;;;;;;7.57;4.40;;;;;17.00;100191.00;;;;10040883;29;20216;-77
2022/05/23 00:19:47;;;;;;;9.07;4.97;;;;;16.90;100180.00;;;;10050240;29;20539;-77
2022/05/23 00:24:50;;;;;;;14.02;5.95;;;;;16.90;100182.00;;;;10019078;29;20261;-78
2022/05/23 00:29:52;;;;;;;9.30;4.90;;;;;16.80;100178.00;;;;10047902;29;20204;-77
2022/05/23 00:40:31;;;;;;;10.67;5.20;;;;;16.90;100163.00;;;;10056160;29;20257;-77
2022/05/23 00:45:33;;;;;;;9.47;5.03;;;;;16.90;100161.00;;;;10049430;29;20196;-77
2022/05/23 00:50:38;;;;;;;6.10;4.90;;;;;16.80;100180.00;;;;10018168;29;20205;-77
2022/05/23 00:55:47;;;;;;;6.90;4.43;;;;;16.60;100169.00;;;;9967592;29;20234;-77
2022/05/23 01:00:50;;;;;;;7.10;5.43;;;;;16.50;100173.00;;;;10004703;29;20197;-76
2022/05/23 01:05:54;;;;;;;8.00;5.03;;;;;16.40;100155.00;;;;10022951;29;20201;-76
2022/05/23 01:10:56;;;;;;;7.07;5.50;;;;;16.30;100160.00;;;;10024543;29;20249;-76
2022/05/23 01:15:59;;;;;;;9.77;5.90;;;;;16.30;100151.00;;;;10023010;29;20242;-76
2022/05/23 01:21:11;;;;;;;6.83;5.70;;;;;16.30;100143.00;;;;10008429;29;20317;-76
2022/05/23 01:26:13;;;;;;;8.97;5.83;;;;;16.30;100147.00;;;;10036770;29;20200;-76
2022/05/23 01:31:19;;;;;;;7.83;6.00;;;;;16.40;100139.00;;;;10047708;29;20197;-76
2022/05/23 01:36:23;;;;;;;6.67;5.27;;;;;16.30;100129.00;;;;10007944;29;20221;-77
2022/05/23 01:41:26;;;;;;;8.27;6.00;;;;;16.30;100136.00;;;;9999922;29;20570;-76
2022/05/23 01:46:37;;;;;;;7.33;6.03;;;;;16.30;100127.00;;;;9993081;29;20201;-76
2022/05/23 01:51:41;;;;;;;9.53;6.27;;;;;16.20;100127.00;;;;10023994;29;20209;-76
2022/05/23 01:56:45;;;;;;;10.60;6.23;;;;;16.20;100108.00;;;;10022737;29;20213;-76
2022/05/23 02:01:53;;;;;;;11.90;6.47;;;;;16.30;100093.00;;;;10020193;29;20256;-76
2022/05/23 02:07:06;;;;;;;8.73;5.10;;;;;16.30;100098.00;;;;10022857;29;20195;-76
2022/05/23 02:12:13;;;;;;;7.20;5.73;;;;;16.20;100092.00;;;;10022217;29;20205;-76
2022/05/23 02:17:15;;;;;;;8.37;5.97;;;;;16.20;100095.00;;;;10021363;29;20217;-76
2022/05/23 02:22:18;;;;;;;7.40;6.43;;;;;16.00;100082.00;;;;10006937;29;20205;-76
2022/05/23 02:27:25;;;;;;;8.07;5.90;;;;;15.90;100074.00;;;;10021633;29;20257;-76
2022/05/23 02:32:27;;;;;;;9.60;6.47;;;;;15.80;100061.00;;;;10027418;29;20261;-76
2022/05/23 02:37:32;;;;;;;10.97;7.13;;;;;15.70;100058.00;;;;10022636;29;20217;-76
2022/05/23 02:42:36;;;;;;;7.87;6.80;;;;;15.70;100039.00;;;;10002203;29;20212;-76
2022/05/23 02:47:39;;;;;;;9.03;7.10;;;;;15.60;100028.00;;;;10007377;29;20214;-76
2022/05/23 02:52:43;;;;;;;8.93;7.13;;;;;15.40;100002.00;;;;10013504;29;20209;-76
2022/05/23 02:57:52;;;;;;;8.30;7.27;;;;;15.30;99999.00;;;;9999076;29;20213;-76
2022/05/23 03:03:04;;;;;;;14.90;7.40;;;;;15.20;99993.00;;;;10027814;29;20236;-76
2022/05/23 03:08:29;;;;;;;10.17;7.87;;;;;15.10;99988.00;;;;10012656;29;20254;-76
2022/05/23 03:13:32;;;;;;;9.83;7.63;;;;;15.10;99973.00;;;;10013116;29;20580;-76
2022/05/23 03:18:34;;;;;;;9.67;7.30;;;;;15.00;99963.00;;;;10039807;29;20221;-76
2022/05/23 03:29:00;;;;;;;10.37;7.30;;;;;14.80;99933.00;;;;10017111;29;20203;-76
2022/05/23 03:34:02;;;;;;;11.50;7.70;;;;;14.70;99929.00;;;;10044054;29;20197;-76
2022/05/23 03:39:04;;;;;;;10.87;7.60;;;;;14.70;99944.00;;;;10027706;29;20569;-76
2022/05/23 03:44:08;;;;;;;13.80;7.37;;;;;14.70;99949.00;;;;10041225;29;20205;-76
2022/05/23 03:49:10;;;;;;;10.60;8.00;;;;;14.80;99930.00;;;;10027493;29;20221;-76
2022/05/23 03:54:12;;;;;;;11.03;7.87;;;;;14.80;99930.00;;;;10027010;29;20195;-76
2022/05/23 03:59:16;;;;;;;9.57;7.87;;;;;14.80;99922.00;;;;10010048;29;20217;-76
2022/05/23 04:04:27;;;;;;;12.37;8.20;;;;;14.90;99916.00;;;;10026397;29;20225;-75
2022/05/23 04:10:13;;;;;;;10.23;9.13;;;;;15.00;99908.00;;;;9961641;29;20209;-76
2022/05/23 04:15:15;;;;;;;9.40;8.30;;;;;15.00;99913.00;;;;10039713;29;20714;-76
2022/05/23 04:20:18;;;;;;;9.47;8.47;;;;;15.10;99908.00;;;;10053823;29;20205;-76
2022/05/23 04:25:31;;;;;;;13.73;9.57;;;;;15.20;99897.00;;;;10014579;29;20209;-76
2022/05/23 04:30:34;;;;;;;12.83;9.40;;;;;15.20;99890.00;;;;10025485;29;20233;-76
2022/05/23 04:35:38;;;;;;;12.70;8.77;;;;;15.30;99897.00;;;;9972585;29;20666;-76
2022/05/23 04:40:40;;;;;;;10.90;9.13;;;;;15.30;99884.00;;;;9987714;29;20618;-76
2022/05/23 04:45:46;;;;;;;12.60;9.07;;;;;15.50;99891.00;;;;9972775;29;20254;-76
2022/05/23 04:50:53;;;;;;;12.23;9.50;;;;;15.70;99872.00;;;;10001627;29;20224;-77
2022/05/23 04:55:59;;;;;;;13.20;9.90;;;;;15.90;99861.00;;;;10016183;29;20300;-77
2022/05/23 05:01:03;;;;;;;13.10;10.27;;;;;16.00;99845.00;;;;9995379;29;20236;-77
2022/05/23 05:06:06;;;;;;;12.10;9.23;;;;;16.20;99852.00;;;;9994836;29;20295;-76
2022/05/23 05:11:10;;;;;;;17.03;10.53;;;;;16.40;99857.00;;;;10023998;29;20204;-77
2022/05/23 05:16:19;;;;;;;13.63;10.20;;;;;16.70;99831.00;;;;10021911;29;20303;-77
2022/05/23 05:21:21;;;;;;;14.67;10.17;;;;;16.80;99831.00;;;;10010131;29;20260;-77
2022/05/23 05:26:46;;;;;;;12.87;10.07;;;;;16.70;99813.00;;;;10000895;29;20284;-77
2022/05/23 05:31:54;;;;;;;14.10;10.00;;;;;16.60;99820.00;;;;10027425;29;20204;-77
2022/05/23 05:37:10;;;;;;;12.53;10.23;;;;;16.50;99822.00;;;;10022483;29;20700;-77
2022/05/23 05:42:23;;;;;;;15.03;9.93;;;;;16.50;99810.00;;;;10012552;29;20553;-77
2022/05/23 05:47:26;;;;;;;10.90;9.80;;;;;16.60;99822.00;;;;10002291;29;20209;-77
2022/05/23 05:52:37;;;;;;;12.30;9.97;;;;;16.60;99811.00;;;;10005177;29;20202;-77
2022/05/23 05:57:39;;;;;;;16.37;10.67;;;;;16.70;99822.00;;;;9984488;29;20245;-77
2022/05/23 06:02:43;;;;;;;13.40;10.37;;;;;16.70;99810.00;;;;10015937;29;20235;-77
2022/05/23 06:13:19;;;;;;;13.97;10.20;;;;;17.00;99829.00;;;;10034781;29;20208;-77
2022/05/23 06:18:53;;;;;;;14.13;10.30;;;;;17.50;99827.00;;;;9997703;29;20698;-76
2022/05/23 06:23:56;;;;;;;11.57;9.48;;;;;17.90;99827.00;;;;10036749;29;20205;-77
2022/05/23 06:29:03;;;;;;;13.20;8.32;;;;;18.30;99818.00;;;;10031296;29;20192;-77
2022/05/23 06:34:06;;;;;;;10.43;5.93;;;;;18.50;99813.00;;;;10034404;29;20203;-77
2022/05/23 06:39:09;;;;;;;7.93;5.60;;;;;18.60;99803.00;;;;10008107;29;20224;-77
2022/05/23 06:44:30;;;;;;;7.10;5.65;;;;;18.70;99798.00;;;;10027397;29;20204;-77
2022/05/23 06:49:51;;;;;;;6.25;4.93;;;;;19.00;99802.00;;;;10025986;29;20207;-77
2022/05/23 06:55:00;;;;;;;7.60;5.07;;;;;19.20;99794.00;;;;10026733;29;20228;-77
2022/05/23 07:00:16;;;;;;;5.45;4.35;;;;;19.40;99788.00;;;;10013464;29;20208;-77
2022/05/23 07:16:10;;;;;;;8.70;5.65;;;;;19.80;99766.00;;;;10009901;29;20213;-77
2022/05/23 07:21:17;;;;;;;9.55;6.20;;;;;19.60;99745.00;;;;10047126;29;20652;-77
2022/05/23 07:26:48;;;;;;;6.80;4.90;;;;;19.80;99740.00;;;;10050914;29;20261;-77
2022/05/23 07:31:52;;;;;;;4.93;4.07;;;;;20.20;99740.00;;;;10015556;29;20208;-76
2022/05/23 07:36:55;;;;;;;6.78;4.28;;;;;20.30;99738.00;;;;10047579;29;20205;-77
2022/05/23 07:42:01;;;;;;;7.85;4.20;;;;;20.60;99720.00;;;;10017416;29;20209;-77
2022/05/23 07:47:06;;;;;;;7.93;4.68;;;;;21.30;99716.00;;;;10021462;29;20699;-77
2022/05/23 07:52:09;;;;;;;5.10;3.58;;;;;21.70;99719.00;;;;9994011;29;20208;-77
2022/05/23 08:02:40;;;;;;;3.65;2.80;;;;;24.60;99711.00;;;;10035313;29;20228;-78
2022/05/23 08:07:46;;;;;;;3.72;2.53;;;;;24.80;99708.00;;;;10018109;29;20193;-78
2022/05/23 08:12:54;;;;;;;4.38;2.33;;;;;25.20;99683.00;;;;10058453;29;20204;-78
2022/05/23 08:17:57;;;;;;;3.35;2.30;;;;;25.80;99673.00;;;;10055564;29;20240;-76
2022/05/23 08:23:07;;;;;;;5.25;2.88;;;;;26.70;99663.00;;;;10016504;29;20205;-78
2022/05/23 08:28:17;;;;;;;5.68;2.47;;;;;27.50;99659.00;;;;10014758;29;20288;-76
2022/05/23 08:33:19;;;;;;;4.90;2.40;;;;;27.00;99666.00;;;;10027240;29;20197;-76
2022/05/23 08:38:24;;;;;;;3.78;2.70;;;;;27.70;99658.00;;;;9966461;29;20209;-76
2022/05/23 08:44:07;;;;;;;4.47;2.15;;;;;28.80;99640.00;;;;10041828;29;20192;-76
2022/05/23 08:49:39;;;;;;;5.10;1.85;;;;;29.60;99636.00;;;;10026541;29;20193;-75
2022/05/23 08:55:05;;;;;;;5.35;2.35;;;;;30.10;99624.00;;;;10011221;29;20291;-75
2022/05/23 09:00:30;;;;;;;3.50;2.10;;;;;30.90;99615.00;;;;9998510;29;20208;-76
2022/05/23 09:05:36;;;;;;;5.30;2.10;;;;;31.20;99596.00;;;;10025448;29;20235;-74
2022/05/23 09:11:25;;;;;;;4.97;2.08;;;;;31.50;99599.00;;;;10025427;29;20200;-76
2022/05/23 09:16:31;;;;;;;3.10;1.88;;;;;32.10;99574.00;;;;10010118;29;20212;-76
2022/05/23 09:26:59;;;;;;;2.92;2.30;;;;;32.40;99552.00;;;;10024552;29;20196;-76
2022/05/23 09:32:12;;;;;;;4.45;2.35;;;;;31.20;99543.00;;;;10032916;29;20197;-77
2022/05/23 09:37:38;;;;;;;3.67;2.10;;;;;29.40;99536.00;;;;10013563;29;20299;-77
2022/05/23 09:48:07;;;;;;;3.90;2.00;;;;;26.90;99523.00;;;;10008991;29;20263;-77
2022/05/23 09:53:17;;;;;;;3.30;2.00;;;;;26.20;99526.00;;;;10003345;29;20202;-77
2022/05/23 09:58:28;;;;;;;2.55;1.60;;;;;25.80;99504.00;;;;9974643;29;20214;-77
2022/05/23 10:03:32;;;;;;;5.00;1.88;;;;;26.30;99512.00;;;;10026489;29;20236;-77
2022/05/23 10:08:40;;;;;;;6.35;2.05;;;;;26.00;99512.00;;;;10011872;29;20203;-76
2022/05/23 10:14:16;;;;;;;3.70;1.55;;;;;25.60;99499.00;;;;10011277;29;20201;-76
2022/05/23 10:19:32;;;;;;;3.17;1.40;;;;;26.40;99495.00;;;;10032481;29;20672;-76
2022/05/23 10:24:40;;;;;;;1.48;1.30;;;;;26.90;99488.00;;;;10027750;29;20668;-75
2022/05/23 10:29:55;;;;;;;1.42;1.30;;;;;26.20;99460.00;;;;10000067;29;20205;-76
2022/05/23 10:35:08;;;;;;;2.45;1.52;;;;;25.90;99449.00;;;;10041009;29;20204;-76
2022/05/23 10:45:36;;;;;;;3.35;1.60;;;;;25.70;99412.00;;;;9988640;29;20298;-77
2022/05/23 10:51:21;;;;;;;3.45;1.40;;;;;26.00;99424.00;;;;9973714;29;20216;-77
2022/05/23 10:56:37;;;;;;;3.83;2.22;;;;;25.90;99430.00;;;;9982549;29;20216;-77
2022/05/23 11:02:07;;;;;;;2.92;1.80;;;;;26.60;99414.00;;;;10026721;29;20754;-76
2022/05/23 11:07:48;;;;;;;6.88;2.35;;;;;27.90;99393.00;;;;10027156;29;20189;-77
2022/05/23 11:13:30;;;;;;;5.22;2.17;;;;;28.30;99389.00;;;;10059429;29;20200;-77
2022/05/23 11:18:37;;;;;;;4.88;2.30;;;;;27.20;99388.00;;;;10017971;29;20253;-76
2022/05/23 11:23:45;;;;;;;5.30;2.33;;;;;25.80;99397.00;;;;10031175;29;20305;-78
2022/05/23 11:34:40;;;;;;;5.70;2.10;;;;;23.60;99414.00;;;;9995304;29;20761;-77
2022/05/23 11:39:54;;;;;;;5.53;2.90;;;;;22.30;99406.00;;;;9996502;29;20696;-77
2022/05/23 11:45:56;;;;;;;5.57;3.33;;;;;21.20;99419.00;;;;9979917;29;20593;-77
2022/05/23 11:50:29;;;;;;;4.68;3.35;;;;;20.40;99411.00;;;;10042833;29;20212;-77
2022/05/23 11:55:50;;;;;;;6.10;3.22;;;;;20.10;99405.00;;;;10001560;29;20197;-77
2022/05/23 12:01:05;;;;;;;9.80;4.22;;;;;19.90;99402.00;;;;10005986;29;20204;-76
2022/05/23 12:06:18;;;;;;;12.80;4.03;;;;;19.90;99390.00;;;;10027551;29;20260;-76
2022/05/23 12:11:21;;;;;;;10.18;4.72;;;;;20.20;99382.00;;;;10027171;29;20208;-76
2022/05/23 12:16:47;;;;;;;9.10;4.45;;;;;20.10;99379.00;;;;10050976;29;20223;-77
2022/05/23 12:21:49;;;;;;;8.63;4.53;;;;;20.30;99375.00;;;;9988368;29;20293;-76
2022/05/23 12:26:54;;;;;;;13.38;4.60;;;;;20.50;99356.00;;;;9991697;29;20194;-77
2022/05/23 12:32:20;;;;;;;8.80;5.47;;;;;19.90;99370.00;;;;10005958;29;20206;-77
2022/05/23 12:37:44;;;;;;;7.47;5.20;;;;;19.90;99358.00;;;;9976048;29;20245;-77
2022/05/23 12:43:11;;;;;;;9.85;5.90;;;;;20.00;99348.00;;;;10011427;29;20197;-76
2022/05/23 12:48:35;;;;;;;10.70;5.55;;;;;20.30;99337.00;;;;10019138;29;20213;-76
2022/05/23 12:53:48;;;;;;;8.70;5.32;;;;;19.80;99337.00;;;;9991971;29;20213;-76
2022/05/23 12:59:12;;;;;;;10.93;7.25;;;;;19.20;99342.00;;;;10028331;29;20743;-76
2022/05/23 13:04:17;;;;;;;9.90;7.63;;;;;18.90;99330.00;;;;10027710;29;20225;-76
2022/05/23 13:09:33;;;;;;;13.95;8.70;;;;;18.80;99328.00;;;;10013069;29;20201;-76
2022/05/23 13:15:05;;;;;;;15.20;9.57;;;;;18.40;99324.00;;;;10046003;29;20336;-77
2022/05/23 13:25:50;;;;;;;14.30;10.27;;;;;17.70;99326.00;;;;10001516;29;20276;-75
2022/05/23 13:30:56;;;;;;;15.40;11.18;;;;;17.50;99338.00;;;;10047346;29;20197;-74
2022/05/23 13:36:10;;;;;;;19.52;13.65;;;;;17.50;99338.00;;;;10025556;29;20192;-74
2022/05/23 13:41:26;;;;;;;16.90;14.10;;;;;18.00;99326.00;;;;10038180;29;20269;-74
2022/05/23 13:46:37;;;;;;;17.00;13.18;;;;;18.40;99293.00;;;;9993161;29;20196;-75
2022/05/23 13:51:51;;;;;;;17.17;13.90;;;;;18.60;99297.00;;;;10008184;29;20205;-75
2022/05/23 13:57:01;;;;;;;15.75;12.02;;;;;18.50;99287.00;;;;9991376;29;20224;-75
2022/05/23 14:02:10;;;;;;;17.75;14.38;;;;;20.60;99254.00;;;;10021639;29;20241;-75
2022/05/23 14:07:15;;;;;;;17.35;14.13;;;;;21.70;99250.00;;;;10037380;29;20273;-75
2022/05/23 14:12:26;;;;;;;16.17;12.13;;;;;20.30;99254.00;;;;10023275;29;20196;-76
2022/05/23 14:17:33;;;;;;;15.82;12.52;;;;;19.20;99250.00;;;;10015334;29;20221;-76
2022/05/23 14:22:35;;;;;;;19.40;13.43;;;;;18.30;99260.00;;;;9985285;29;20242;-76
2022/05/23 14:27:52;;;;;;;17.60;14.27;;;;;17.90;99258.00;;;;10021781;29;20201;-74
2022/05/23 14:33:00;;;;;;;16.40;14.55;;;;;17.90;99265.00;;;;10000925;29;20264;-75
2022/05/23 14:38:02;;;;;;;21.15;15.85;;;;;18.70;99254.00;;;;10037057;29;20269;-75
2022/05/23 14:43:12;;;;;;;17.63;15.77;;;;;18.00;99282.00;;;;10011823;29;20205;-74
2022/05/23 14:48:21;;;;;;;21.95;16.95;;;;;17.80;99278.00;;;;10028303;29;20680;-74
2022/05/23 15:04:32;;;;;;;37.28;33.08;;;;;17.70;99259.00;;;;10037850;29;20240;-74
2022/05/23 15:09:34;;;;;;;43.42;37.20;;;;;17.30;99274.00;;;;10013519;29;20247;-74
2022/05/23 15:14:36;;;;;;;28.95;26.02;;;;;16.90;99276.00;;;;10031154;29;20197;-75
2022/05/23 15:19:39;;;;;;;27.43;24.30;;;;;16.50;99281.00;;;;10036978;29;20218;-75
2022/05/23 15:24:40;;;;;;;18.73;16.73;;;;;16.10;99300.00;;;;10066576;29;20214;-75
2022/05/23 15:29:47;;;;;;;19.90;14.27;;;;;15.80;99288.00;;;;10042842;29;20764;-75
2022/05/23 15:34:49;;;;;;;17.13;14.97;;;;;15.70;99309.00;;;;10027736;29;20197;-75
2022/05/23 15:39:51;;;;;;;15.97;12.77;;;;;15.70;99309.00;;;;10026514;29;20312;-75
2022/05/23 15:44:55;;;;;;;14.53;13.03;;;;;15.50;99319.00;;;;10027755;29;20580;-75
2022/05/23 15:49:58;;;;;;;17.60;13.27;;;;;15.50;99334.00;;;;10009951;29;20198;-75
2022/05/23 15:55:00;;;;;;;16.70;11.47;;;;;15.30;99347.00;;;;9974287;29;20209;-75
2022/05/23 16:00:12;;;;;;;16.67;12.13;;;;;15.00;99366.00;;;;9980980;29;20224;-75
2022/05/23 16:05:21;;;;;;;9.30;8.30;;;;;15.20;99367.00;;;;10025758;29;20267;-74
2022/05/23 16:10:23;;;;;;;15.40;10.10;;;;;15.10;99377.00;;;;10026263;29;20211;-74
2022/05/23 16:15:28;;;;;;;11.73;9.60;;;;;15.10;99385.00;;;;9994547;29;20210;-74
2022/05/23 16:20:31;;;;;;;13.57;10.03;;;;;15.20;99388.00;;;;10046796;29;20265;-74
2022/05/23 16:25:35;;;;;;;13.93;12.53;;;;;15.00;99385.00;;;;10033881;29;20209;-73
2022/05/23 16:30:41;;;;;;;16.13;13.03;;;;;14.70;99403.00;;;;10017874;29;20307;-73
2022/05/23 16:41:05;;;;;;;22.30;18.73;;;;;14.40;99423.00;;;;10003095;29;20221;-74
2022/05/23 16:46:07;;;;;;;24.30;20.00;;;;;14.30;99424.00;;;;10003081;29;20254;-74
2022/05/23 16:51:09;;;;;;;25.90;21.27;;;;;14.30;99424.00;;;;9986200;29;20201;-74
2022/05/23 16:56:11;;;;;;;25.40;21.27;;;;;14.30;99438.00;;;;9987387;29;20665;-74
2022/05/23 17:01:17;;;;;;;25.17;21.60;;;;;14.10;99460.00;;;;10017457;29;20236;-74
2022/05/23 17:06:21;;;;;;;25.40;22.03;;;;;14.20;99467.00;;;;10024245;29;20201;-74
2022/05/23 17:11:23;;;;;;;29.67;26.03;;;;;14.20;99478.00;;;;10040132;29;20190;-74
2022/05/23 17:16:44;;;;;;;18.43;16.30;;;;;14.20;99489.00;;;;9988871;29;20208;-74
2022/05/23 17:21:46;;;;;;;16.23;11.93;;;;;14.40;99496.00;;;;9971480;29;20225;-74
2022/05/23 17:26:48;;;;;;;17.47;12.87;;;;;14.80;99495.00;;;;10001872;29;20194;-74
2022/05/23 17:31:50;;;;;;;10.20;9.07;;;;;14.90;99484.00;;;;10012616;29;20260;-74
2022/05/23 17:36:52;;;;;;;13.37;9.60;;;;;15.30;99506.00;;;;10024282;29;20206;-74
2022/05/23 17:41:54;;;;;;;13.90;10.53;;;;;15.20;99497.00;;;;9956181;29;20205;-74
2022/05/23 17:46:56;;;;;;;15.00;13.50;;;;;15.20;99519.00;;;;9985497;29;20198;-75
2022/05/23 17:51:59;;;;;;;16.10;13.67;;;;;15.30;99516.00;;;;10017167;29;20205;-75
2022/05/23 17:57:01;;;;;;;20.37;15.07;;;;;15.20;99524.00;;;;10008365;29;20220;-74
2022/05/23 18:02:03;;;;;;;19.37;15.53;;;;;15.00;99530.00;;;;10037493;29;20696;-74
2022/05/23 18:07:06;;;;;;;14.13;12.60;;;;;14.80;99543.00;;;;10022845;29;20197;-75
2022/05/23 18:12:09;;;;;;;13.47;12.07;;;;;14.60;99544.00;;;;10013989;29;20197;-74
2022/05/23 18:22:52;;;;;;;15.93;13.07;;;;;14.50;99543.00;;;;10022295;29;20193;-74
2022/05/23 18:27:54;;;;;;;13.90;10.63;;;;;14.50;99549.00;;;;10007067;29;20201;-74
2022/05/23 18:32:56;;;;;;;16.60;11.60;;;;;14.50;99551.00;;;;10031931;29;20196;-74
2022/05/23 18:38:00;;;;;;;14.50;10.50;;;;;14.50;99555.00;;;;10021938;29;20232;-74
2022/05/23 18:43:04;;;;;;;14.23;10.03;;;;;14.50;99557.00;;;;9956336;29;20712;-74
2022/05/23 18:53:28;;;;;;;13.63;8.80;;;;;14.40;99580.00;;;;10022024;29;20225;-74
2022/05/23 18:58:30;;;;;;;10.47;8.43;;;;;14.30;99588.00;;;;10021704;29;20220;-74
2022/05/23 19:03:46;;;;;;;12.53;9.30;;;;;14.30;99599.00;;;;10035613;29;20240;-74
2022/05/23 19:08:49;;;;;;;12.37;10.20;;;;;14.30;99616.00;;;;9984048;29;20286;-75
2022/05/23 19:13:55;;;;;;;13.30;10.23;;;;;14.30;99621.00;;;;10015487;29;20261;-74
2022/05/23 19:19:17;;;;;;;12.47;10.90;;;;;14.30;99622.00;;;;10041300;29;20572;-75
2022/05/23 19:24:20;;;;;;;15.27;11.60;;;;;14.30;99624.00;;;;10044657;29;20196;-74
2022/05/23 19:29:22;;;;;;;16.17;11.47;;;;;14.30;99639.00;;;;10044729;29;20193;-74
2022/05/23 19:34:30;;;;;;;19.93;13.73;;;;;14.30;99642.00;;;;10018429;29;20201;-74
2022/05/23 19:39:38;;;;;;;17.70;13.33;;;;;14.30;99647.00;;;;10013050;29;20256;-74
2022/05/23 19:44:41;;;;;;;21.30;17.07;;;;;14.30;99644.00;;;;10027171;29;20265;-74
2022/05/23 19:49:44;;;;;;;27.00;18.97;;;;;14.20;99641.00;;;;10026211;29;20225;-74
2022/05/23 19:54:46;;;;;;;27.83;19.73;;;;;14.20;99662.00;;;;10027457;29;20189;-75
2022/05/23 19:59:49;;;;;;;26.57;19.03;;;;;14.20;99666.00;;;;10026343;29;20329;-74
2022/05/23 20:10:13;;;;;;;29.93;22.03;;;;;14.20;99678.00;;;;10026803;29;20737;-74
2022/05/23 20:15:26;;;;;;;26.60;21.80;;;;;14.20;99682.00;;;;10010711;29;20299;-74
2022/05/23 20:20:33;;;;;;;30.53;25.07;;;;;14.30;99684.00;;;;9997563;29;20212;-74
2022/05/23 20:25:35;;;;;;;34.37;26.13;;;;;14.20;99682.00;;;;10012004;29;20284;-74
2022/05/23 20:30:38;;;;;;;34.40;27.73;;;;;14.20;99676.00;;;;10032322;29;20550;-74
2022/05/23 20:35:43;;;;;;;43.57;28.97;;;;;14.10;99688.00;;;;10011188;29;20208;-74
2022/05/23 20:40:45;;;;;;;38.50;28.83;;;;;14.10;99697.00;;;;9972668;29;20217;-74
2022/05/23 20:45:47;;;;;;;38.27;28.20;;;;;14.20;99700.00;;;;9961897;29;20635;-75
2022/05/23 20:50:51;;;;;;;33.90;27.30;;;;;14.20;99697.00;;;;9987812;29;20190;-74
2022/05/23 20:55:55;;;;;;;37.63;27.27;;;;;14.20;99694.00;;;;9972300;29;20611;-74
2022/05/23 21:00:57;;;;;;;35.30;27.13;;;;;14.20;99696.00;;;;9993652;29;20311;-74
2022/05/23 21:05:59;;;;;;;31.50;25.20;;;;;14.20;99679.00;;;;10010318;29;20523;-74
2022/05/23 21:11:06;;;;;;;30.97;24.27;;;;;14.20;99680.00;;;;10009882;29;20189;-74
2022/05/23 21:16:09;;;;;;;29.23;23.43;;;;;14.20;99683.00;;;;10022439;29;20197;-74
2022/05/23 21:21:11;;;;;;;28.17;23.50;;;;;14.20;99682.00;;;;10035449;29;20213;-74
2022/05/23 21:26:17;;;;;;;25.43;21.67;;;;;14.20;99686.00;;;;10039441;29;20197;-74
2022/05/23 21:31:19;;;;;;;20.97;18.20;;;;;14.20;99702.00;;;;10014711;29;20538;-74
2022/05/23 21:36:21;;;;;;;19.47;15.17;;;;;14.10;99711.00;;;;9993540;29;20649;-74
2022/05/23 21:46:44;;;;;;;14.30;11.73;;;;;13.90;99706.00;;;;10024025;29;20205;-74
2022/05/23 21:51:47;;;;;;;18.80;12.60;;;;;13.90;99719.00;;;;10008504;29;20228;-74
2022/05/23 21:56:50;;;;;;;13.67;10.70;;;;;13.80;99713.00;;;;10037558;29;20679;-74
2022/05/23 22:01:52;;;;;;;12.60;10.87;;;;;13.80;99718.00;;;;10037583;29;20229;-74
2022/05/23 22:06:55;;;;;;;17.87;11.53;;;;;13.70;99723.00;;;;10031412;29;20231;-74
2022/05/23 22:11:59;;;;;;;14.63;10.53;;;;;13.70;99734.00;;;;10022944;29;20241;-74
2022/05/23 22:17:02;;;;;;;19.20;11.23;;;;;13.70;99736.00;;;;10025745;29;20188;-74
2022/05/23 22:22:04;;;;;;;16.40;11.40;;;;;13.60;99734.00;;;;10041679;29;20216;-74
2022/05/23 22:27:10;;;;;;;16.30;10.70;;;;;13.50;99758.00;;;;9998973;29;20209;-74
2022/05/23 22:32:12;;;;;;;12.70;10.13;;;;;13.50;99739.00;;;;10007448;29;20201;-73
2022/05/23 22:37:14;;;;;;;16.63;11.17;;;;;13.40;99739.00;;;;10038306;29;20220;-74
2022/05/23 22:42:16;;;;;;;25.00;12.30;;;;;13.40;99759.00;;;;10035502;29;20717;-74
2022/05/23 22:47:18;;;;;;;20.20;11.63;;;;;13.30;99756.00;;;;10022231;29;20193;-73
2022/05/23 22:52:20;;;;;;;17.10;10.70;;;;;13.30;99746.00;;;;10006721;29;20229;-74
2022/05/23 22:57:24;;;;;;;14.00;10.20;;;;;13.20;99748.00;;;;10027390;29;20208;-74
2022/05/23 23:02:26;;;;;;;15.60;8.73;;;;;13.20;99739.00;;;;9970509;29;20256;-73
2022/05/23 23:07:28;;;;;;;11.27;7.37;;;;;13.10;99731.00;;;;10048594;29;20736;-74
2022/05/23 23:12:31;;;;;;;14.40;7.40;;;;;13.10;99723.00;;;;10019684;29;20206;-73
2022/05/23 23:17:34;;;;;;;9.33;4.63;;;;;13.00;99717.00;;;;10036508;29;20228;-73
2022/05/23 23:22:35;;;;;;;13.20;4.43;;;;;13.00;99722.00;;;;10040433;29;20581;-74
2022/05/23 23:27:39;;;;;;;12.17;4.47;;;;;12.90;99720.00;;;;10027889;29;20208;-73
2022/05/23 23:32:40;;;;;;;9.90;5.10;;;;;12.80;99724.00;;;;10027874;29;20197;-73
2022/05/23 23:37:51;;;;;;;14.80;5.00;;;;;12.60;99728.00;;;;10026741;29;20201;-73
2022/05/23 23:42:54;;;;;;;16.23;5.97;;;;;12.50;99723.00;;;;10027791;29;20204;-73
2022/05/23 23:48:00;;;;;;;12.37;5.57;;;;;12.40;99719.00;;;;9990030;29;20705;-74
2022/05/23 23:53:02;;;;;;;12.53;6.10;;;;;12.40;99720.00;;;;9975189;29;20200;-73
2022/05/23 23:58:05;;;;;;;12.90;4.60;;;;;12.30;99729.00;;;;9991678;29;20213;-73
